Time;durP1;ratioP1;P1;durP2;ratioP2;P2;SDS_P1;SDS_P2;PMS_P1;PMS_P2;Temp;Humidity;BMP_temperature;BMP_pressure;BME280_temperature;BME280_humidity;BME280_pressure;Samples;Min_cycle;Max_cycle;Signal;HPM_P1;HPM_P2
2023/03/10 00:01:16;;;;;;;7.28;2.38;;;14.30;99.90;;;;;;5074874;28;20032;-65
2023/03/10 00:03:42;;;;;;;4.93;2.30;;;14.30;99.90;;;;;;5074646;28;20039;-64
2023/03/10 00:06:12;;;;;;;7.03;2.53;;;14.20;99.90;;;;;;5074168;28;20361;-63
2023/03/10 00:08:39;;;;;;;9.02;2.70;;;14.20;99.90;;;;;;5086111;28;20397;-63
2023/03/10 00:11:05;;;;;;;10.63;3.38;;;14.30;99.90;;;;;;5054322;28;20021;-64
2023/03/10 00:13:32;;;;;;;7.25;2.63;;;14.30;99.90;;;;;;5054045;28;20388;-62
2023/03/10 00:15:59;;;;;;;9.65;2.80;;;14.20;99.90;;;;;;5054100;28;20029;-64
2023/03/10 00:18:25;;;;;;;9.95;2.95;;;14.10;99.90;;;;;;5054035;28;20063;-64
2023/03/10 00:20:53;;;;;;;8.32;2.78;;;14.00;99.90;;;;;;5053903;28;20112;-64
2023/03/10 00:23:20;;;;;;;5.68;2.67;;;13.90;99.90;;;;;;5054231;28;20055;-64
2023/03/10 00:25:57;;;;;;;8.70;3.00;;;13.90;99.90;;;;;;5053928;28;20032;-64
2023/03/10 00:28:24;;;;;;;7.53;2.97;;;13.90;99.90;;;;;;5053780;28;20322;-64
2023/03/10 00:31:06;;;;;;;10.70;3.15;;;13.90;99.90;;;;;;5054192;28;20025;-65
2023/03/10 00:33:34;;;;;;;9.38;2.90;;;13.90;99.90;;;;;;5053854;28;20025;-65
2023/03/10 00:36:07;;;;;;;6.90;2.67;;;13.90;99.90;;;;;;5053917;28;20041;-65
2023/03/10 00:38:35;;;;;;;5.97;2.90;;;13.80;99.90;;;;;;5053761;28;20104;-65
2023/03/10 00:41:09;;;;;;;10.18;3.85;;;13.80;99.90;;;;;;5053694;28;20460;-64
2023/03/10 00:43:35;;;;;;;9.25;3.63;;;13.80;99.90;;;;;;5053592;28;20021;-65
2023/03/10 00:46:02;;;;;;;7.63;2.75;;;13.90;99.90;;;;;;5053746;28;20062;-65
2023/03/10 00:48:28;;;;;;;9.38;2.90;;;13.80;99.90;;;;;;5053739;28;20110;-65
2023/03/10 00:50:55;;;;;;;9.90;3.47;;;13.80;99.90;;;;;;5054029;28;20421;-65
2023/03/10 00:53:21;;;;;;;6.90;2.75;;;13.80;99.90;;;;;;5054014;28;20097;-65
2023/03/10 00:56:05;;;;;;;6.50;3.05;;;13.90;99.90;;;;;;5053082;28;20017;-65
2023/03/10 00:58:31;;;;;;;8.85;2.83;;;13.90;99.90;;;;;;5033568;28;20057;-65
2023/03/10 01:00:58;;;;;;;8.98;3.08;;;13.80;99.90;;;;;;5034123;28;20033;-65
2023/03/10 01:03:26;;;;;;;;;;;13.80;99.90;;;;;;5032298;28;20457;-66
2023/03/10 01:05:54;;;;;;;8.45;2.80;;;13.80;99.90;;;;;;5033777;28;19916;-64
2023/03/10 01:08:20;;;;;;;6.35;3.00;;;13.80;99.90;;;;;;5065500;28;20135;-65
2023/03/10 01:10:47;;;;;;;6.53;2.90;;;13.80;99.90;;;;;;5073664;28;20036;-65
2023/03/10 01:13:15;;;;;;;10.20;3.45;;;13.80;99.90;;;;;;5073190;28;20481;-64
2023/03/10 01:15:43;;;;;;;6.28;2.95;;;13.70;99.90;;;;;;5073231;28;20021;-65
2023/03/10 01:18:09;;;;;;;8.63;3.17;;;13.70;99.90;;;;;;5073100;28;20027;-65
2023/03/10 01:20:36;;;;;;;14.48;3.20;;;13.70;99.90;;;;;;5073081;28;20036;-64
2023/03/10 01:23:03;;;;;;;;;;;13.80;99.90;;;;;;5082760;28;20020;-64
2023/03/10 01:25:29;;;;;;;7.15;3.10;;;13.80;99.90;;;;;;5093582;28;20221;-65
2023/03/10 01:27:55;;;;;;;11.65;3.15;;;13.80;99.90;;;;;;5093339;28;20038;-65
2023/03/10 01:30:21;;;;;;;8.17;3.37;;;13.80;99.90;;;;;;5093178;28;20024;-65
2023/03/10 01:32:47;;;;;;;7.20;3.33;;;13.80;99.90;;;;;;5093241;28;20386;-65
2023/03/10 01:35:13;;;;;;;9.23;3.27;;;13.80;99.90;;;;;;5093620;28;20275;-65
2023/03/10 01:37:41;;;;;;;10.17;3.47;;;13.80;99.90;;;;;;5079981;28;20021;-65
2023/03/10 01:40:12;;;;;;;10.10;3.80;;;13.80;99.90;;;;;;5073363;28;20044;-64
2023/03/10 01:42:38;;;;;;;9.27;3.63;;;13.80;99.90;;;;;;5072392;28;20354;-65
2023/03/10 01:45:08;;;;;;;7.23;3.60;;;13.80;99.90;;;;;;5072605;28;20024;-65
2023/03/10 01:47:34;;;;;;;9.65;3.28;;;13.70;99.90;;;;;;5084870;28;20499;-65
2023/03/10 01:50:03;;;;;;;6.15;3.03;;;13.70;99.90;;;;;;5082166;28;20607;-65
2023/03/10 01:52:31;;;;;;;10.45;3.20;;;13.60;99.90;;;;;;5072410;28;20061;-65
2023/03/10 01:55:18;;;;;;;9.27;3.42;;;13.70;99.90;;;;;;5072366;28;20025;-65
2023/03/10 01:57:54;;;;;;;8.50;3.22;;;13.70;99.90;;;;;;5077190;28;20384;-65
2023/03/10 02:00:21;;;;;;;8.73;3.40;;;13.70;99.90;;;;;;5092630;28;20070;-65
2023/03/10 02:03:07;;;;;;;9.15;3.63;;;13.70;99.90;;;;;;5092643;28;20356;-64
2023/03/10 02:05:37;;;;;;;8.68;3.78;;;13.70;99.90;;;;;;5092729;28;20024;-64
2023/03/10 02:08:05;;;;;;;8.93;3.95;;;13.70;99.90;;;;;;5075617;28;20040;-65
2023/03/10 02:10:32;;;;;;;8.43;4.00;;;13.80;99.90;;;;;;5072173;28;20024;-64
2023/03/10 02:12:58;;;;;;;9.25;3.78;;;13.80;99.90;;;;;;5071976;28;20025;-65
2023/03/10 02:15:24;;;;;;;15.73;4.13;;;13.80;99.90;;;;;;5072066;28;20028;-65
2023/03/10 02:17:52;;;;;;;11.17;3.60;;;13.80;99.90;;;;;;5072179;28;20637;-65
2023/03/10 02:20:40;;;;;;;9.80;3.65;;;13.80;99.90;;;;;;5071726;28;20489;-65
2023/03/10 02:23:08;;;;;;;10.90;3.53;;;13.70;99.90;;;;;;5071549;28;20051;-65
2023/03/10 02:25:52;;;;;;;6.88;3.17;;;13.80;99.90;;;;;;5071691;28;20104;-64
2023/03/10 02:28:19;;;;;;;8.65;3.50;;;13.80;99.90;;;;;;5071656;28;20056;-65
2023/03/10 02:30:48;;;;;;;10.13;4.40;;;13.80;99.90;;;;;;5071794;28;20444;-64
2023/03/10 02:33:24;;;;;;;9.27;4.20;;;13.80;99.90;;;;;;5071556;28;20043;-65
2023/03/10 02:35:51;;;;;;;10.57;3.83;;;13.80;99.90;;;;;;5071611;28;20125;-65
2023/03/10 02:38:18;;;;;;;12.85;4.50;;;13.80;99.90;;;;;;5053204;28;20063;-65
2023/03/10 02:40:51;;;;;;;12.38;4.50;;;13.80;99.90;;;;;;5051466;28;20029;-65
2023/03/10 02:43:26;;;;;;;10.73;4.50;;;13.80;99.90;;;;;;5051282;28;20047;-63
2023/03/10 02:45:59;;;;;;;11.60;5.18;;;13.80;99.90;;;;;;5051416;28;20029;-62
2023/03/10 02:48:35;;;;;;;10.60;4.72;;;13.90;99.90;;;;;;5051309;28;20059;-62
2023/03/10 02:51:04;;;;;;;8.75;4.70;;;13.90;99.90;;;;;;5051299;28;20092;-63
2023/03/10 02:53:31;;;;;;;14.98;5.00;;;13.80;99.90;;;;;;5050825;28;20025;-60
2023/03/10 02:55:58;;;;;;;9.95;4.80;;;13.80;99.90;;;;;;5051062;28;20075;-64
2023/03/10 02:58:27;;;;;;;10.18;4.82;;;13.90;99.90;;;;;;5050740;28;20112;-63
2023/03/10 03:00:54;;;;;;;10.88;4.68;;;13.80;99.90;;;;;;5050952;28;20044;-64
2023/03/10 03:03:21;;;;;;;10.68;5.22;;;13.90;99.90;;;;;;5050973;28;20024;-62
2023/03/10 03:05:54;;;;;;;11.15;5.70;;;13.80;99.90;;;;;;5050857;28;20028;-63
2023/03/10 03:08:20;;;;;;;12.07;6.25;;;13.90;99.90;;;;;;5069011;28;20130;-64
2023/03/10 03:10:46;;;;;;;13.63;5.60;;;13.80;99.90;;;;;;5070639;28;20052;-64
2023/03/10 03:13:12;;;;;;;15.27;6.45;;;13.80;99.90;;;;;;5070405;28;20278;-64
2023/03/10 03:15:38;;;;;;;11.23;5.45;;;13.80;99.90;;;;;;5070699;28;20035;-63
2023/03/10 03:18:05;;;;;;;9.02;4.90;;;13.90;99.90;;;;;;5076865;28;20086;-63
2023/03/10 03:20:31;;;;;;;16.55;6.55;;;13.90;99.90;;;;;;5083408;28;20020;-65
2023/03/10 03:22:58;;;;;;;11.00;5.05;;;13.90;99.90;;;;;;5070295;28;20104;-64
2023/03/10 03:25:27;;;;;;;8.93;4.65;;;13.90;99.90;;;;;;5052069;28;20028;-64
2023/03/10 03:27:54;;;;;;;13.73;5.10;;;14.00;99.90;;;;;;5050414;28;20028;-63
2023/03/10 03:30:26;;;;;;;7.95;4.28;;;13.90;99.90;;;;;;5050695;28;20170;-64
2023/03/10 03:32:53;;;;;;;10.13;4.30;;;13.90;99.90;;;;;;5050529;28;20359;-64
2023/03/10 03:35:23;;;;;;;11.20;4.53;;;13.90;99.90;;;;;;5050687;28;20029;-64
2023/03/10 03:37:50;;;;;;;11.35;4.63;;;13.90;99.90;;;;;;5065096;28;20029;-64
2023/03/10 03:40:16;;;;;;;;;;;13.90;99.90;;;;;;5071222;28;20051;-64
2023/03/10 03:42:44;;;;;;;12.23;4.68;;;13.90;99.90;;;;;;5070166;28;19904;-64
2023/03/10 03:45:12;;;;;;;11.15;4.25;;;13.90;99.90;;;;;;5070374;28;20422;-63
2023/03/10 03:47:38;;;;;;;12.60;4.35;;;13.90;99.90;;;;;;5069959;28;20025;-63
2023/03/10 03:50:12;;;;;;;13.38;4.90;;;14.00;99.90;;;;;;5052172;28;20363;-64
2023/03/10 03:52:40;;;;;;;14.30;4.22;;;13.90;99.90;;;;;;5069935;28;20111;-64
2023/03/10 03:55:07;;;;;;;9.77;3.92;;;13.90;99.90;;;;;;5070046;28;20040;-64
2023/03/10 03:57:34;;;;;;;11.23;4.60;;;13.90;99.90;;;;;;5070257;28;20020;-64
2023/03/10 04:00:00;;;;;;;17.83;4.55;;;13.90;99.90;;;;;;5070513;28;20028;-64
2023/03/10 04:02:26;;;;;;;11.50;4.17;;;13.90;99.90;;;;;;5085003;28;20511;-64
2023/03/10 04:04:55;;;;;;;9.43;4.70;;;13.90;99.90;;;;;;5091058;28;20056;-64
2023/03/10 04:07:21;;;;;;;14.50;4.43;;;13.90;99.90;;;;;;5080517;28;20413;-64
2023/03/10 04:09:49;;;;;;;18.27;4.77;;;13.90;99.90;;;;;;5070850;28;20063;-64
2023/03/10 04:12:15;;;;;;;13.65;4.55;;;13.90;99.90;;;;;;5070804;28;20021;-64
2023/03/10 04:14:42;;;;;;;13.07;4.80;;;13.80;99.90;;;;;;5070899;28;20024;-64
2023/03/10 04:17:08;;;;;;;11.65;4.38;;;13.80;99.90;;;;;;5086234;28;20028;-64
2023/03/10 04:19:36;;;;;;;11.83;4.70;;;13.80;99.90;;;;;;5070900;28;20021;-63
2023/03/10 04:22:02;;;;;;;15.50;4.50;;;13.80;99.90;;;;;;5070561;28;20047;-64
2023/03/10 04:24:28;;;;;;;14.20;4.43;;;13.80;99.90;;;;;;5071286;28;20040;-64
2023/03/10 04:26:54;;;;;;;14.07;5.63;;;13.80;99.90;;;;;;5087157;28;20029;-63
2023/03/10 04:29:23;;;;;;;15.57;5.03;;;13.80;99.90;;;;;;5071140;28;20064;-64
2023/03/10 04:31:50;;;;;;;12.80;4.65;;;13.70;99.90;;;;;;5071087;28;20074;-64
2023/03/10 04:34:17;;;;;;;17.98;5.28;;;13.70;99.90;;;;;;5071320;28;20021;-66
2023/03/10 04:36:43;;;;;;;13.80;4.93;;;13.70;99.90;;;;;;5071858;28;20075;-59
2023/03/10 04:39:12;;;;;;;14.07;5.03;;;13.60;99.90;;;;;;5071045;28;20029;-64
2023/03/10 04:41:38;;;;;;;17.48;5.80;;;13.60;99.90;;;;;;5071208;28;20417;-64
2023/03/10 04:44:04;;;;;;;14.53;5.40;;;13.60;99.90;;;;;;5072715;28;20036;-63
2023/03/10 04:46:30;;;;;;;10.88;5.75;;;13.60;99.90;;;;;;5074695;28;20032;-64
2023/03/10 04:48:56;;;;;;;13.77;5.05;;;13.60;99.90;;;;;;5074526;28;20032;-64
2023/03/10 04:51:23;;;;;;;16.05;7.50;;;13.50;99.90;;;;;;5074589;28;20025;-63
2023/03/10 04:53:50;;;;;;;17.55;7.78;;;13.50;99.90;;;;;;5074845;28;20027;-64
2023/03/10 04:56:16;;;;;;;15.65;6.43;;;13.40;99.90;;;;;;5074743;28;20017;-63
2023/03/10 04:58:43;;;;;;;12.07;6.20;;;13.40;99.90;;;;;;5074520;28;20460;-64
2023/03/10 05:01:10;;;;;;;18.20;5.97;;;13.40;99.90;;;;;;5074782;28;20020;-64
2023/03/10 05:03:36;;;;;;;17.17;6.50;;;13.50;99.90;;;;;;5078952;28;20031;-64
2023/03/10 05:06:03;;;;;;;14.67;6.33;;;13.40;99.90;;;;;;5074667;28;20025;-64
2023/03/10 05:08:29;;;;;;;;;;;13.40;99.90;;;;;;5074139;28;20106;-64
2023/03/10 05:10:55;;;;;;;16.25;6.65;;;13.40;99.90;;;;;;5074099;28;19951;-64
2023/03/10 05:13:21;;;;;;;17.97;6.80;;;13.30;99.90;;;;;;5074329;28;20031;-65
2023/03/10 05:15:47;;;;;;;13.07;6.30;;;13.40;99.90;;;;;;5074604;28;20258;-63
2023/03/10 05:18:14;;;;;;;15.20;5.90;;;13.40;99.90;;;;;;5074885;28;20112;-63
2023/03/10 05:20:40;;;;;;;16.25;5.90;;;13.40;99.90;;;;;;5074614;28;20075;-60
2023/03/10 05:23:06;;;;;;;13.80;6.03;;;13.40;99.90;;;;;;5075061;28;20025;-63
2023/03/10 05:25:35;;;;;;;14.18;6.25;;;13.40;99.90;;;;;;5090056;28;20025;-64
2023/03/10 05:28:01;;;;;;;13.50;6.18;;;13.40;99.90;;;;;;5074631;28;20036;-64
2023/03/10 05:30:29;;;;;;;17.15;5.93;;;13.40;99.90;;;;;;5074176;28;20032;-63
2023/03/10 05:32:55;;;;;;;18.25;6.10;;;13.40;99.90;;;;;;5074253;28;20052;-64
2023/03/10 05:35:22;;;;;;;14.77;5.72;;;13.40;99.90;;;;;;5089806;28;20028;-63
2023/03/10 05:37:52;;;;;;;13.68;6.22;;;13.40;99.90;;;;;;5074107;28;20086;-63
2023/03/10 05:40:19;;;;;;;15.48;5.57;;;13.40;99.90;;;;;;5090425;28;20464;-66
2023/03/10 05:42:46;;;;;;;11.98;5.57;;;13.40;99.90;;;;;;5074008;28;20023;-63
2023/03/10 05:45:12;;;;;;;15.18;5.53;;;13.40;99.90;;;;;;5073564;28;20032;-64
2023/03/10 05:47:38;;;;;;;14.88;5.68;;;13.40;99.90;;;;;;5074025;28;20146;-64
2023/03/10 05:50:06;;;;;;;17.73;5.60;;;13.50;99.90;;;;;;5074396;28;20127;-64
2023/03/10 05:52:40;;;;;;;15.68;5.45;;;13.60;99.90;;;;;;5074087;28;20033;-69
2023/03/10 05:55:10;;;;;;;14.85;5.57;;;13.70;99.90;;;;;;5073641;28;20040;-65
2023/03/10 05:57:36;;;;;;;15.43;5.43;;;13.80;99.90;;;;;;5074253;28;20055;-64
2023/03/10 06:00:05;;;;;;;;;;;13.90;99.90;;;;;;5070767;28;20037;-60
2023/03/10 06:02:32;;;;;;;14.02;5.55;;;13.90;99.90;;;;;;5058095;28;19909;-65
2023/03/10 06:04:58;;;;;;;18.20;6.05;;;14.20;99.90;;;;;;5054024;28;20025;-65
2023/03/10 06:07:24;;;;;;;16.87;6.13;;;14.20;99.90;;;;;;5042819;28;20180;-60
2023/03/10 06:09:52;;;;;;;26.30;6.25;;;14.30;99.90;;;;;;5051915;28;20037;-64
2023/03/10 06:12:22;;;;;;;19.40;5.88;;;14.40;99.90;;;;;;5053850;28;20017;-63
2023/03/10 06:14:49;;;;;;;20.30;5.85;;;14.50;99.90;;;;;;5053350;28;20056;-64
2023/03/10 06:17:15;;;;;;;20.42;5.18;;;14.60;99.90;;;;;;5054070;28;20467;-63
2023/03/10 06:19:41;;;;;;;17.55;4.95;;;14.70;99.90;;;;;;5053593;28;20110;-63
2023/03/10 06:22:07;;;;;;;14.88;5.25;;;14.80;99.90;;;;;;5053633;28;20380;-64
2023/03/10 06:24:33;;;;;;;23.02;5.47;;;15.00;99.90;;;;;;5052726;28;20190;-62
2023/03/10 06:26:59;;;;;;;19.83;5.15;;;15.10;99.90;;;;;;5053607;28;20033;-63
2023/03/10 06:29:27;;;;;;;17.13;5.10;;;15.60;99.90;;;;;;5052245;28;20041;-64
2023/03/10 06:31:53;;;;;;;14.98;4.50;;;16.20;99.90;;;;;;5052363;28;20421;-63
2023/03/10 06:34:20;;;;;;;16.08;4.40;;;16.70;99.90;;;;;;5053368;28;20427;-64
2023/03/10 06:36:48;;;;;;;15.27;4.57;;;17.10;99.90;;;;;;5053219;28;20031;-64
2023/03/10 06:39:14;;;;;;;16.67;4.55;;;17.30;99.90;;;;;;5053774;28;20063;-64
2023/03/10 06:41:40;;;;;;;17.25;4.07;;;17.60;99.90;;;;;;5053228;28;20049;-64
2023/03/10 06:44:06;;;;;;;25.73;5.20;;;17.80;99.90;;;;;;5051285;28;20112;-64
2023/03/10 06:46:32;;;;;;;17.00;4.57;;;17.30;99.90;;;;;;5052219;28;20016;-65
2023/03/10 06:48:58;;;;;;;21.88;4.88;;;17.10;99.90;;;;;;5052674;28;20043;-63
2023/03/10 06:51:26;;;;;;;15.38;4.65;;;17.00;99.90;;;;;;5051000;28;20445;-64
2023/03/10 06:53:56;;;;;;;17.27;4.20;;;16.90;99.90;;;;;;5052513;28;20036;-64
2023/03/10 06:56:22;;;;;;;22.73;5.10;;;16.80;99.90;;;;;;5052265;28;20017;-67
2023/03/10 06:58:48;;;;;;;14.98;4.60;;;16.60;99.90;;;;;;5050391;28;20056;-66
2023/03/10 07:01:26;;;;;;;12.32;3.95;;;16.60;99.90;;;;;;5051642;28;20115;-65
2023/03/10 07:03:54;;;;;;;16.70;4.57;;;16.40;99.90;;;;;;5052310;28;20025;-65
2023/03/10 07:06:22;;;;;;;18.98;4.32;;;16.40;99.90;;;;;;5050240;28;20036;-65
2023/03/10 07:08:53;;;;;;;12.70;4.25;;;16.40;99.90;;;;;;5068252;28;20052;-66
2023/03/10 07:11:20;;;;;;;20.70;7.00;;;16.20;99.90;;;;;;5072710;28;20020;-67
2023/03/10 07:13:46;;;;;;;24.52;11.05;;;16.00;99.90;;;;;;5072518;28;20040;-67
2023/03/10 07:16:13;;;;;;;20.25;8.52;;;16.20;99.90;;;;;;5054962;28;20025;-68
2023/03/10 07:18:40;;;;;;;19.98;7.75;;;16.30;99.90;;;;;;5072989;28;20116;-67
2023/03/10 07:21:08;;;;;;;14.63;6.57;;;16.40;99.90;;;;;;5054201;28;20464;-66
2023/03/10 07:23:35;;;;;;;20.08;8.43;;;16.30;99.90;;;;;;5072075;28;20103;-67
2023/03/10 07:26:01;;;;;;;27.65;9.43;;;16.50;99.90;;;;;;5088248;28;20488;-65
2023/03/10 07:28:27;;;;;;;19.77;9.45;;;16.40;99.90;;;;;;5072206;28;20443;-65
2023/03/10 07:30:55;;;;;;;24.58;9.13;;;16.70;99.90;;;;;;5072083;28;20115;-66
2023/03/10 07:33:21;;;;;;;24.17;6.38;;;16.80;99.90;;;;;;5053521;28;20033;-65
2023/03/10 07:35:49;;;;;;;21.05;8.30;;;17.30;99.90;;;;;;5071924;28;20024;-65
2023/03/10 07:38:15;;;;;;;28.60;8.00;;;17.40;99.90;;;;;;5072206;28;20028;-65
2023/03/10 07:40:41;;;;;;;18.17;6.82;;;17.30;99.90;;;;;;5072801;28;20020;-65
2023/03/10 07:43:07;;;;;;;25.55;7.45;;;17.30;99.90;;;;;;5072627;28;20036;-64
2023/03/10 07:45:34;;;;;;;21.67;5.82;;;17.40;99.90;;;;;;5071864;28;20097;-67
2023/03/10 07:48:00;;;;;;;19.67;4.70;;;17.20;99.90;;;;;;5087380;28;20033;-65
2023/03/10 07:50:26;;;;;;;19.38;5.05;;;17.20;99.90;;;;;;5072730;28;20403;-66
2023/03/10 07:52:53;;;;;;;23.30;5.55;;;17.20;99.90;;;;;;5072713;28;20364;-66
2023/03/10 07:55:19;;;;;;;16.35;4.88;;;17.20;99.90;;;;;;5072139;28;20377;-66
2023/03/10 07:57:46;;;;;;;22.80;5.70;;;17.30;99.90;;;;;;5073008;28;20399;-66
2023/03/10 08:00:13;;;;;;;16.73;5.18;;;17.30;99.90;;;;;;5087161;28;20099;-66
2023/03/10 08:02:39;;;;;;;19.27;5.45;;;17.30;99.90;;;;;;5072061;28;20103;-65
2023/03/10 08:05:07;;;;;;;18.20;5.40;;;17.30;99.90;;;;;;5072238;28;20032;-66
2023/03/10 08:07:34;;;;;;;22.08;5.68;;;17.50;99.90;;;;;;5071512;28;20119;-65
2023/03/10 08:10:00;;;;;;;27.60;5.10;;;17.70;99.90;;;;;;5072182;28;20048;-70
2023/03/10 08:12:26;;;;;;;24.40;5.38;;;18.20;99.90;;;;;;5072296;28;20035;-67
2023/03/10 08:14:52;;;;;;;20.05;4.93;;;18.60;99.90;;;;;;5071611;28;20107;-66
2023/03/10 08:17:18;;;;;;;18.90;5.57;;;19.00;99.90;;;;;;5072119;28;20382;-65
2023/03/10 08:19:44;;;;;;;16.88;5.03;;;19.20;99.90;;;;;;5075390;28;20024;-66
2023/03/10 08:22:10;;;;;;;20.73;5.22;;;19.10;99.90;;;;;;5057408;28;20028;-67
2023/03/10 08:24:38;;;;;;;23.90;5.13;;;19.30;99.90;;;;;;5075597;28;20116;-65
2023/03/10 08:27:06;;;;;;;28.08;4.75;;;19.40;99.90;;;;;;5075272;28;20033;-65
2023/03/10 08:29:32;;;;;;;24.73;4.85;;;19.30;99.90;;;;;;5074676;28;20499;-66
2023/03/10 08:31:58;;;;;;;20.63;5.15;;;19.50;99.90;;;;;;5075302;28;20040;-66
2023/03/10 08:34:24;;;;;;;20.10;5.05;;;19.20;99.90;;;;;;5072295;28;20033;-65
2023/03/10 08:36:50;;;;;;;23.20;4.80;;;19.50;99.90;;;;;;5074426;28;20032;-64
2023/03/10 08:39:16;;;;;;;26.50;5.10;;;19.20;99.90;;;;;;5074274;28;20099;-64
2023/03/10 08:41:47;;;;;;;22.10;4.72;;;19.00;99.90;;;;;;5062741;28;20052;-65
2023/03/10 08:44:16;;;;;;;28.50;5.47;;;18.60;99.90;;;;;;5053647;28;20029;-64
2023/03/10 08:46:46;;;;;;;21.95;5.70;;;18.80;99.90;;;;;;5052805;28;20056;-65
2023/03/10 08:49:14;;;;;;;23.15;5.45;;;19.20;99.90;;;;;;5054470;28;20037;-67
2023/03/10 08:51:41;;;;;;;24.00;5.30;;;19.50;99.90;;;;;;5054453;28;20029;-65
2023/03/10 08:54:07;;;;;;;28.08;5.07;;;19.20;99.90;;;;;;5053960;28;20037;-67
2023/03/10 08:56:35;;;;;;;32.30;5.70;;;19.00;99.90;;;;;;5054718;28;20064;-64
2023/03/10 08:59:02;;;;;;;22.35;4.82;;;19.40;99.90;;;;;;5053994;28;20036;-67
2023/03/10 09:01:35;;;;;;;19.10;4.78;;;19.60;99.90;;;;;;5070174;28;20063;-66
2023/03/10 09:04:03;;;;;;;25.30;5.72;;;19.40;99.90;;;;;;5054314;28;20025;-65
2023/03/10 09:06:29;;;;;;;23.27;5.22;;;19.40;99.90;;;;;;5057565;28;20032;-65
2023/03/10 09:08:55;;;;;;;31.08;5.25;;;19.40;99.90;;;;;;5073816;28;20369;-65
2023/03/10 09:11:27;;;;;;;26.95;5.55;;;19.50;99.90;;;;;;5073746;28;20031;-67
2023/03/10 09:13:58;;;;;;;29.02;6.30;;;19.70;99.90;;;;;;5074050;28;20024;-65
2023/03/10 09:16:25;;;;;;;26.30;6.15;;;19.70;99.90;;;;;;5074370;28;20029;-65
2023/03/10 09:18:51;;;;;;;37.22;6.53;;;19.80;99.90;;;;;;5056215;28;20112;-66
2023/03/10 09:21:18;;;;;;;24.17;5.00;;;19.80;99.90;;;;;;5074526;28;20191;-64
2023/03/10 09:23:46;;;;;;;25.95;6.45;;;20.00;99.90;;;;;;5074053;28;20480;-64
2023/03/10 09:26:12;;;;;;;23.00;5.63;;;19.20;99.90;;;;;;5074000;28;20136;-65
2023/03/10 09:28:38;;;;;;;23.27;4.40;;;19.20;99.90;;;;;;5073387;28;20504;-65
2023/03/10 09:31:06;;;;;;;26.15;4.70;;;19.10;99.90;;;;;;5073796;28;20021;-65
2023/03/10 09:33:33;;;;;;;30.38;5.63;;;18.90;99.90;;;;;;5055262;28;20484;-66
2023/03/10 09:36:01;;;;;;;;;;;19.00;99.90;;;;;;5056117;28;20029;-65
2023/03/10 09:38:28;;;;;;;21.48;4.75;;;19.10;99.90;;;;;;5073235;28;19964;-65
2023/03/10 09:41:21;;;;;;;29.13;5.15;;;19.10;99.90;;;;;;5073255;28;20024;-64
2023/03/10 09:43:54;;;;;;;23.95;4.93;;;19.00;99.90;;;;;;5055404;28;20116;-65
2023/03/10 09:46:39;;;;;;;22.58;4.80;;;19.30;99.90;;;;;;5074025;28;20063;-66
2023/03/10 09:49:29;;;;;;;18.88;4.45;;;19.50;99.90;;;;;;5073181;28;20040;-65
2023/03/10 09:51:56;;;;;;;27.45;4.68;;;20.00;99.90;;;;;;5073755;28;20024;-65
2023/03/10 09:54:34;;;;;;;19.95;4.38;;;20.20;99.90;;;;;;5073504;28;20024;-67
2023/03/10 09:57:03;;;;;;;17.88;4.50;;;20.20;99.90;;;;;;5073408;28;20021;-66
2023/03/10 09:59:39;;;;;;;21.77;4.47;;;20.50;99.90;;;;;;5072594;28;20046;-66
2023/03/10 10:02:32;;;;;;;;;;;20.40;99.90;;;;;;5073730;28;20444;-65
2023/03/10 10:05:02;;;;;;;20.98;4.38;;;20.20;99.90;;;;;;5070627;28;19916;-65
2023/03/10 10:07:46;;;;;;;23.33;4.25;;;19.80;99.90;;;;;;5073153;28;20068;-65
2023/03/10 10:10:25;;;;;;;22.38;5.25;;;19.70;99.90;;;;;;5038623;28;20032;-64
2023/03/10 10:12:53;;;;;;;23.17;4.90;;;20.00;99.90;;;;;;5073300;28;20025;-66
2023/03/10 10:15:24;;;;;;;29.55;5.18;;;19.90;99.90;;;;;;5073364;28;20398;-65
2023/03/10 10:18:09;;;;;;;29.02;5.05;;;20.00;99.90;;;;;;5072890;28;20100;-66
2023/03/10 10:21:00;;;;;;;24.90;4.67;;;20.20;99.90;;;;;;5073176;28;20104;-66
2023/03/10 10:23:41;;;;;;;26.48;5.13;;;20.20;99.90;;;;;;5072985;28;20402;-66
2023/03/10 10:26:16;;;;;;;23.02;4.38;;;20.20;99.90;;;;;;5088059;28;20035;-66
2023/03/10 10:28:49;;;;;;;23.33;5.15;;;20.20;99.90;;;;;;5054657;28;20041;-66
2023/03/10 10:31:19;;;;;;;24.02;6.22;;;19.50;99.90;;;;;;5054497;28;20032;-67
2023/03/10 10:34:06;;;;;;;19.98;4.70;;;19.70;99.90;;;;;;5072805;28;20031;-67
2023/03/10 10:36:53;;;;;;;21.90;4.28;;;20.30;99.90;;;;;;5072314;28;20028;-66
2023/03/10 10:39:42;;;;;;;16.08;4.05;;;20.80;99.90;;;;;;5072849;28;20090;-66
2023/03/10 10:42:32;;;;;;;20.85;4.22;;;20.80;99.90;;;;;;5072945;28;20112;-65
2023/03/10 10:45:05;;;;;;;20.30;4.25;;;20.80;99.90;;;;;;5046696;28;20093;-65
2023/03/10 10:47:46;;;;;;;21.15;4.30;;;20.80;99.90;;;;;;5072189;28;20086;-62
2023/03/10 10:50:21;;;;;;;22.17;3.85;;;21.00;99.90;;;;;;5053659;28;20110;-65
2023/03/10 10:52:52;;;;;;;26.38;5.07;;;20.70;99.90;;;;;;5054216;28;20104;-68
2023/03/10 10:55:25;;;;;;;22.85;4.80;;;20.40;99.90;;;;;;5071756;28;20036;-66
2023/03/10 10:57:58;;;;;;;24.77;4.60;;;20.40;99.90;;;;;;5075860;28;20017;-65
2023/03/10 11:00:27;;;;;;;22.60;4.72;;;20.50;99.90;;;;;;5085624;28;20494;-66
2023/03/10 11:02:53;;;;;;;24.13;4.60;;;20.50;99.90;;;;;;5091908;28;20024;-65
2023/03/10 11:05:44;;;;;;;33.15;5.38;;;20.30;99.90;;;;;;5092301;28;20050;-63
2023/03/10 11:08:27;;;;;;;26.75;5.25;;;20.30;99.90;;;;;;5053189;28;20434;-65
2023/03/10 11:11:28;;;;;;;21.08;4.10;;;20.50;99.90;;;;;;5051994;28;20056;-66
2023/03/10 11:14:16;;;;;;;22.60;5.07;;;20.60;99.90;;;;;;5031704;28;20041;-67
2023/03/10 11:17:13;;;;;;;23.52;5.50;;;20.60;99.90;;;;;;5031811;28;20025;-65
2023/03/10 11:20:04;;;;;;;21.02;4.28;;;20.70;99.90;;;;;;5031535;28;20029;-66
2023/03/10 11:22:52;;;;;;;25.27;4.20;;;20.90;99.90;;;;;;5032508;28;20022;-67
2023/03/10 11:25:41;;;;;;;25.73;4.82;;;20.60;99.90;;;;;;5032038;28;20040;-66
2023/03/10 11:28:18;;;;;;;21.70;4.53;;;20.80;99.90;;;;;;5031866;28;20021;-65
2023/03/10 11:31:05;;;;;;;25.33;4.60;;;20.90;99.90;;;;;;5048438;28;20047;-65
2023/03/10 11:33:34;;;;;;;27.08;4.80;;;20.40;99.90;;;;;;5072478;28;20029;-65
2023/03/10 11:36:16;;;;;;;25.50;4.97;;;20.00;99.90;;;;;;5072395;28;20035;-67
2023/03/10 11:38:49;;;;;;;29.30;4.95;;;20.10;99.90;;;;;;5032519;28;20018;-64
2023/03/10 11:41:27;;;;;;;26.92;5.40;;;20.20;99.90;;;;;;5032576;28;20029;-65
2023/03/10 11:44:22;;;;;;;27.60;5.50;;;20.10;99.90;;;;;;5032205;28;20065;-65
2023/03/10 11:47:05;;;;;;;33.83;5.63;;;20.10;99.90;;;;;;5031589;28;20120;-65
2023/03/10 11:49:39;;;;;;;27.45;5.35;;;20.30;99.90;;;;;;5031456;28;20036;-65
2023/03/10 11:52:25;;;;;;;21.08;4.70;;;20.10;99.90;;;;;;5031832;28;20021;-65
2023/03/10 11:55:04;;;;;;;31.98;5.38;;;19.80;99.90;;;;;;5035762;28;20056;-67
2023/03/10 11:57:40;;;;;;;26.52;4.82;;;19.60;99.90;;;;;;5044875;28;20024;-66
2023/03/10 12:00:20;;;;;;;31.08;5.05;;;19.50;99.90;;;;;;5074459;28;20503;-65
2023/03/10 12:03:13;;;;;;;23.63;4.70;;;19.60;99.90;;;;;;5075348;28;20365;-66
2023/03/10 12:05:49;;;;;;;26.63;5.43;;;19.20;99.90;;;;;;5075414;28;20028;-67
2023/03/10 12:08:21;;;;;;;21.77;5.00;;;18.90;99.90;;;;;;5066550;28;20067;-65
2023/03/10 12:10:48;;;;;;;27.20;5.55;;;19.10;99.90;;;;;;5075402;28;20056;-67
2023/03/10 12:13:25;;;;;;;33.97;5.95;;;19.10;99.90;;;;;;5075349;28;20044;-65
2023/03/10 12:15:58;;;;;;;32.38;5.90;;;18.90;99.90;;;;;;5073215;28;20032;-64
2023/03/10 12:18:28;;;;;;;27.35;5.90;;;19.00;99.90;;;;;;5075251;28;20024;-65
2023/03/10 12:21:21;;;;;;;26.00;5.45;;;19.00;99.90;;;;;;5054932;28;20020;-65
2023/03/10 12:23:50;;;;;;;24.95;5.75;;;18.70;99.90;;;;;;5036158;28;20087;-64
2023/03/10 12:26:38;;;;;;;30.67;5.68;;;18.70;99.90;;;;;;5053816;28;20385;-64
2023/03/10 12:29:20;;;;;;;34.63;5.70;;;18.70;99.90;;;;;;5054635;28;20045;-65
2023/03/10 12:31:54;;;;;;;31.25;6.30;;;18.60;99.90;;;;;;5054880;28;20041;-65
2023/03/10 12:34:31;;;;;;;31.17;6.22;;;18.60;99.90;;;;;;5054666;28;20029;-65
2023/03/10 12:37:23;;;;;;;33.90;6.63;;;18.70;99.90;;;;;;5061806;28;20039;-65
2023/03/10 12:39:52;;;;;;;35.53;7.25;;;18.50;99.90;;;;;;5074939;28;20021;-64
2023/03/10 12:42:33;;;;;;;30.80;7.07;;;18.50;99.90;;;;;;5074604;28;20139;-62
2023/03/10 12:45:20;;;;;;;28.65;6.22;;;18.30;99.90;;;;;;5074052;28;20039;-65
2023/03/10 12:47:54;;;;;;;36.10;6.50;;;18.10;99.90;;;;;;5074356;28;20458;-63
2023/03/10 12:51:15;;;;;;;29.77;7.05;;;17.90;99.90;;;;;;5056652;28;20036;-64
2023/03/10 12:54:22;;;;;;;33.15;6.55;;;17.70;99.90;;;;;;5018961;28;20510;-64
2023/03/10 12:57:16;;;;;;;29.30;6.80;;;17.50;99.90;;;;;;5042529;28;20127;-63
2023/03/10 13:00:05;;;;;;;34.30;6.68;;;17.50;99.90;;;;;;5074474;28;20485;-64